Veliko Gradiste, Serbia
Current Conditions -  °F | °C
As of 3:30 PM on Sunday 23 Nov 2014 (Local Time) from LYVR Reporting Station
Broken Clouds Broken Clouds  
Wind Chill: 46°   Ceiling: 3300
Heat Index: 46°   Visibility: 6mi
Dew Point: 32°   Wind: 2mph
Humidity: 57%   Direction: NA
Pressure: 30.39"   Gusts: NA
Location:  44.76°N, 21.51°E
Report Text: LYVR 231330Z VRB02KT 9999 FEW023 BKN033 08/00 Q1029 NOSIG
Loading
Personal Weather Stations






























Interactive Weather Map New forecast layout! Learn more

10-Day Weather Forecast

Advertisements
Track Severe Weather on mobile